sensor_id;sensor_type;location;lat;lon;timestamp;temperature;humidity
17599;DHT22;8918;52.092;5.232;2023-03-23T00:01:54;11.80;99.90
17599;DHT22;8918;52.092;5.232;2023-03-23T00:04:20;11.80;99.90
17599;DHT22;8918;52.092;5.232;2023-03-23T00:06:46;11.80;99.90
17599;DHT22;8918;52.092;5.232;2023-03-23T00:09:13;11.90;99.90
17599;DHT22;8918;52.092;5.232;2023-03-23T00:11:40;11.90;99.90
17599;DHT22;8918;52.092;5.232;2023-03-23T00:14:06;11.80;99.90
17599;DHT22;8918;52.092;5.232;2023-03-23T00:16:39;11.80;99.90
17599;DHT22;8918;52.092;5.232;2023-03-23T00:19:08;11.80;99.90
17599;DHT22;8918;52.092;5.232;2023-03-23T00:21:36;11.80;99.90
17599;DHT22;8918;52.092;5.232;2023-03-23T00:24:12;11.90;99.90
17599;DHT22;8918;52.092;5.232;2023-03-23T00:26:39;11.80;99.90
17599;DHT22;8918;52.092;5.232;2023-03-23T00:29:08;11.90;99.90
17599;DHT22;8918;52.092;5.232;2023-03-23T00:31:36;11.90;99.90
17599;DHT22;8918;52.092;5.232;2023-03-23T00:34:03;11.80;99.90
17599;DHT22;8918;52.092;5.232;2023-03-23T00:36:31;11.90;99.90
17599;DHT22;8918;52.092;5.232;2023-03-23T00:38:57;11.90;99.90
17599;DHT22;8918;52.092;5.232;2023-03-23T00:41:27;11.90;99.90
17599;DHT22;8918;52.092;5.232;2023-03-23T00:43:57;11.90;99.90
17599;DHT22;8918;52.092;5.232;2023-03-23T00:46:25;11.90;99.90
17599;DHT22;8918;52.092;5.232;2023-03-23T00:48:51;11.90;99.90
17599;DHT22;8918;52.092;5.232;2023-03-23T00:51:18;11.90;99.90
17599;DHT22;8918;52.092;5.232;2023-03-23T00:53:44;12.00;99.90
17599;DHT22;8918;52.092;5.232;2023-03-23T00:56:11;12.00;99.90
17599;DHT22;8918;52.092;5.232;2023-03-23T00:58:37;12.00;99.90
17599;DHT22;8918;52.092;5.232;2023-03-23T01:01:03;12.10;99.90
17599;DHT22;8918;52.092;5.232;2023-03-23T01:03:29;12.10;99.90
17599;DHT22;8918;52.092;5.232;2023-03-23T01:05:56;12.10;99.90
17599;DHT22;8918;52.092;5.232;2023-03-23T01:08:22;12.10;99.90
17599;DHT22;8918;52.092;5.232;2023-03-23T01:10:49;12.10;99.90
17599;DHT22;8918;52.092;5.232;2023-03-23T01:13:16;12.10;99.90
17599;DHT22;8918;52.092;5.232;2023-03-23T01:15:42;12.10;99.90
17599;DHT22;8918;52.092;5.232;2023-03-23T01:18:09;12.10;99.90
17599;DHT22;8918;52.092;5.232;2023-03-23T01:20:36;12.10;99.90
17599;DHT22;8918;52.092;5.232;2023-03-23T01:23:02;12.10;99.90
17599;DHT22;8918;52.092;5.232;2023-03-23T01:25:29;12.10;99.90
17599;DHT22;8918;52.092;5.232;2023-03-23T01:27:55;12.10;99.90
17599;DHT22;8918;52.092;5.232;2023-03-23T01:30:21;12.10;99.90
17599;DHT22;8918;52.092;5.232;2023-03-23T01:32:47;12.10;99.90
17599;DHT22;8918;52.092;5.232;2023-03-23T01:35:13;12.10;99.90
17599;DHT22;8918;52.092;5.232;2023-03-23T01:37:39;12.10;99.90
17599;DHT22;8918;52.092;5.232;2023-03-23T01:40:05;12.10;99.90
17599;DHT22;8918;52.092;5.232;2023-03-23T01:42:34;12.10;99.90
17599;DHT22;8918;52.092;5.232;2023-03-23T01:48:04;12.00;99.90
17599;DHT22;8918;52.092;5.232;2023-03-23T01:50:34;12.00;99.90
17599;DHT22;8918;52.092;5.232;2023-03-23T01:53:01;12.10;99.90
17599;DHT22;8918;52.092;5.232;2023-03-23T01:55:30;12.10;99.90
17599;DHT22;8918;52.092;5.232;2023-03-23T01:57:56;12.10;99.90
17599;DHT22;8918;52.092;5.232;2023-03-23T02:00:23;12.10;99.90
17599;DHT22;8918;52.092;5.232;2023-03-23T02:02:50;12.10;99.90
17599;DHT22;8918;52.092;5.232;2023-03-23T02:07:51;12.10;99.90
17599;DHT22;8918;52.092;5.232;2023-03-23T02:10:17;12.10;99.90
17599;DHT22;8918;52.092;5.232;2023-03-23T02:12:43;12.10;99.90
17599;DHT22;8918;52.092;5.232;2023-03-23T02:15:09;12.10;99.90
17599;DHT22;8918;52.092;5.232;2023-03-23T02:17:44;12.10;99.90
17599;DHT22;8918;52.092;5.232;2023-03-23T02:29:25;12.20;99.90
17599;DHT22;8918;52.092;5.232;2023-03-23T02:34:59;12.10;99.90
17599;DHT22;8918;52.092;5.232;2023-03-23T02:37:40;12.10;99.90
17599;DHT22;8918;52.092;5.232;2023-03-23T02:40:21;12.10;99.90
17599;DHT22;8918;52.092;5.232;2023-03-23T02:42:51;12.20;99.90
17599;DHT22;8918;52.092;5.232;2023-03-23T02:45:21;12.20;99.90
17599;DHT22;8918;52.092;5.232;2023-03-23T02:47:50;12.20;99.90
17599;DHT22;8918;52.092;5.232;2023-03-23T02:50:18;12.20;99.90
17599;DHT22;8918;52.092;5.232;2023-03-23T02:52:46;12.30;99.90
17599;DHT22;8918;52.092;5.232;2023-03-23T02:55:12;12.30;99.90
17599;DHT22;8918;52.092;5.232;2023-03-23T02:57:39;12.30;99.90
17599;DHT22;8918;52.092;5.232;2023-03-23T03:00:07;12.30;99.90
17599;DHT22;8918;52.092;5.232;2023-03-23T03:02:38;12.30;99.90
17599;DHT22;8918;52.092;5.232;2023-03-23T03:08:18;12.30;99.90
17599;DHT22;8918;52.092;5.232;2023-03-23T03:11:05;12.40;99.90
17599;DHT22;8918;52.092;5.232;2023-03-23T03:16:30;12.50;99.90
17599;DHT22;8918;52.092;5.232;2023-03-23T03:19:02;12.50;99.90
17599;DHT22;8918;52.092;5.232;2023-03-23T03:21:33;12.50;99.90
17599;DHT22;8918;52.092;5.232;2023-03-23T03:24:01;12.50;99.90
17599;DHT22;8918;52.092;5.232;2023-03-23T03:26:30;12.50;99.90
17599;DHT22;8918;52.092;5.232;2023-03-23T03:28:57;12.50;99.90
17599;DHT22;8918;52.092;5.232;2023-03-23T03:31:28;12.50;99.90
17599;DHT22;8918;52.092;5.232;2023-03-23T03:33:54;12.60;99.90
17599;DHT22;8918;52.092;5.232;2023-03-23T03:36:26;12.60;99.90
17599;DHT22;8918;52.092;5.232;2023-03-23T03:38:52;12.60;99.90
17599;DHT22;8918;52.092;5.232;2023-03-23T03:41:19;12.60;99.90
17599;DHT22;8918;52.092;5.232;2023-03-23T03:43:45;12.60;99.90
17599;DHT22;8918;52.092;5.232;2023-03-23T03:46:11;12.60;99.90
17599;DHT22;8918;52.092;5.232;2023-03-23T03:48:37;12.60;99.90
17599;DHT22;8918;52.092;5.232;2023-03-23T03:51:03;12.60;99.90
17599;DHT22;8918;52.092;5.232;2023-03-23T03:53:29;12.60;99.90
17599;DHT22;8918;52.092;5.232;2023-03-23T03:55:56;12.60;99.90
17599;DHT22;8918;52.092;5.232;2023-03-23T03:58:25;12.60;99.90
17599;DHT22;8918;52.092;5.232;2023-03-23T04:00:59;12.70;99.90
17599;DHT22;8918;52.092;5.232;2023-03-23T04:03:26;12.60;99.90
17599;DHT22;8918;52.092;5.232;2023-03-23T04:05:53;12.60;99.90
17599;DHT22;8918;52.092;5.232;2023-03-23T04:08:21;12.70;99.90
17599;DHT22;8918;52.092;5.232;2023-03-23T04:10:47;12.70;99.90
17599;DHT22;8918;52.092;5.232;2023-03-23T04:13:14;12.70;99.90
17599;DHT22;8918;52.092;5.232;2023-03-23T04:15:40;12.70;99.90
17599;DHT22;8918;52.092;5.232;2023-03-23T04:18:06;12.70;99.90
17599;DHT22;8918;52.092;5.232;2023-03-23T04:20:32;12.60;99.90
17599;DHT22;8918;52.092;5.232;2023-03-23T04:23:00;12.70;99.90
17599;DHT22;8918;52.092;5.232;2023-03-23T04:25:27;12.70;99.90
17599;DHT22;8918;52.092;5.232;2023-03-23T04:27:53;12.70;99.90
17599;DHT22;8918;52.092;5.232;2023-03-23T04:30:23;12.70;99.90
17599;DHT22;8918;52.092;5.232;2023-03-23T04:32:50;12.70;99.90
17599;DHT22;8918;52.092;5.232;2023-03-23T04:35:18;12.70;99.90
17599;DHT22;8918;52.092;5.232;2023-03-23T04:37:45;12.70;99.90
17599;DHT22;8918;52.092;5.232;2023-03-23T04:40:11;12.70;99.90
17599;DHT22;8918;52.092;5.232;2023-03-23T04:42:40;12.70;99.90
17599;DHT22;8918;52.092;5.232;2023-03-23T04:45:08;12.70;99.90
17599;DHT22;8918;52.092;5.232;2023-03-23T04:47:37;12.60;99.90
17599;DHT22;8918;52.092;5.232;2023-03-23T04:50:20;12.60;99.90
17599;DHT22;8918;52.092;5.232;2023-03-23T04:52:47;12.70;99.90
17599;DHT22;8918;52.092;5.232;2023-03-23T04:55:13;12.60;99.90
17599;DHT22;8918;52.092;5.232;2023-03-23T04:57:39;12.60;99.90
17599;DHT22;8918;52.092;5.232;2023-03-23T05:00:06;12.60;99.90
17599;DHT22;8918;52.092;5.232;2023-03-23T05:02:37;12.60;99.90
17599;DHT22;8918;52.092;5.232;2023-03-23T05:05:05;12.50;99.90
17599;DHT22;8918;52.092;5.232;2023-03-23T05:07:31;12.50;99.90
17599;DHT22;8918;52.092;5.232;2023-03-23T05:09:57;12.50;99.90
17599;DHT22;8918;52.092;5.232;2023-03-23T05:12:23;12.40;99.90
17599;DHT22;8918;52.092;5.232;2023-03-23T05:14:48;12.40;99.90
17599;DHT22;8918;52.092;5.232;2023-03-23T05:17:15;12.40;99.90
17599;DHT22;8918;52.092;5.232;2023-03-23T05:19:43;12.40;99.90
17599;DHT22;8918;52.092;5.232;2023-03-23T05:22:17;12.30;99.90
17599;DHT22;8918;52.092;5.232;2023-03-23T05:24:46;12.20;99.90
17599;DHT22;8918;52.092;5.232;2023-03-23T05:27:12;12.20;99.90
17599;DHT22;8918;52.092;5.232;2023-03-23T05:29:38;12.10;99.90
17599;DHT22;8918;52.092;5.232;2023-03-23T05:32:07;12.10;99.90
17599;DHT22;8918;52.092;5.232;2023-03-23T05:34:34;12.10;99.90
17599;DHT22;8918;52.092;5.232;2023-03-23T05:37:00;12.10;99.90
17599;DHT22;8918;52.092;5.232;2023-03-23T05:39:27;12.00;99.90
17599;DHT22;8918;52.092;5.232;2023-03-23T05:41:53;11.90;99.90
17599;DHT22;8918;52.092;5.232;2023-03-23T05:44:19;11.90;99.90
17599;DHT22;8918;52.092;5.232;2023-03-23T05:46:45;11.80;99.90
17599;DHT22;8918;52.092;5.232;2023-03-23T05:49:11;11.80;99.90
17599;DHT22;8918;52.092;5.232;2023-03-23T05:51:36;11.80;99.90
17599;DHT22;8918;52.092;5.232;2023-03-23T05:54:02;11.70;99.90
17599;DHT22;8918;52.092;5.232;2023-03-23T05:56:29;11.70;99.90
17599;DHT22;8918;52.092;5.232;2023-03-23T05:58:56;11.60;99.90
17599;DHT22;8918;52.092;5.232;2023-03-23T06:01:22;11.60;99.90
17599;DHT22;8918;52.092;5.232;2023-03-23T06:03:48;11.50;99.90
17599;DHT22;8918;52.092;5.232;2023-03-23T06:06:16;11.30;99.90
17599;DHT22;8918;52.092;5.232;2023-03-23T06:08:43;11.30;99.90
17599;DHT22;8918;52.092;5.232;2023-03-23T06:11:09;11.30;99.90
17599;DHT22;8918;52.092;5.232;2023-03-23T06:13:35;11.20;99.90
17599;DHT22;8918;52.092;5.232;2023-03-23T06:16:02;11.10;99.90
17599;DHT22;8918;52.092;5.232;2023-03-23T06:18:27;11.20;99.90
17599;DHT22;8918;52.092;5.232;2023-03-23T06:20:54;11.30;99.90
17599;DHT22;8918;52.092;5.232;2023-03-23T06:23:19;11.30;99.90
17599;DHT22;8918;52.092;5.232;2023-03-23T06:25:45;11.20;99.90
17599;DHT22;8918;52.092;5.232;2023-03-23T06:28:11;11.20;99.90
17599;DHT22;8918;52.092;5.232;2023-03-23T06:30:37;11.30;99.90
17599;DHT22;8918;52.092;5.232;2023-03-23T06:33:02;11.20;99.90
17599;DHT22;8918;52.092;5.232;2023-03-23T06:35:31;11.30;99.90
17599;DHT22;8918;52.092;5.232;2023-03-23T06:37:57;11.30;99.90
17599;DHT22;8918;52.092;5.232;2023-03-23T06:40:27;11.20;99.90
17599;DHT22;8918;52.092;5.232;2023-03-23T06:42:53;11.10;99.90
17599;DHT22;8918;52.092;5.232;2023-03-23T06:45:18;11.10;99.90
17599;DHT22;8918;52.092;5.232;2023-03-23T06:47:48;11.10;99.90
17599;DHT22;8918;52.092;5.232;2023-03-23T06:50:15;11.00;99.90
17599;DHT22;8918;52.092;5.232;2023-03-23T06:52:40;11.00;99.90
17599;DHT22;8918;52.092;5.232;2023-03-23T06:55:06;11.00;99.90
17599;DHT22;8918;52.092;5.232;2023-03-23T06:57:32;11.10;99.90
17599;DHT22;8918;52.092;5.232;2023-03-23T06:59:58;11.10;99.90
17599;DHT22;8918;52.092;5.232;2023-03-23T07:02:23;11.10;99.90
17599;DHT22;8918;52.092;5.232;2023-03-23T07:04:51;11.10;99.90
17599;DHT22;8918;52.092;5.232;2023-03-23T07:07:16;11.00;99.90
17599;DHT22;8918;52.092;5.232;2023-03-23T07:09:44;11.10;99.90
17599;DHT22;8918;52.092;5.232;2023-03-23T07:12:09;11.10;99.90
17599;DHT22;8918;52.092;5.232;2023-03-23T07:14:35;11.20;99.90
17599;DHT22;8918;52.092;5.232;2023-03-23T07:17:03;11.20;99.90
17599;DHT22;8918;52.092;5.232;2023-03-23T07:19:28;11.20;99.90
17599;DHT22;8918;52.092;5.232;2023-03-23T07:21:54;11.30;99.90
17599;DHT22;8918;52.092;5.232;2023-03-23T07:24:22;11.30;99.90
17599;DHT22;8918;52.092;5.232;2023-03-23T07:26:47;11.30;99.90
17599;DHT22;8918;52.092;5.232;2023-03-23T07:29:13;11.30;99.90
17599;DHT22;8918;52.092;5.232;2023-03-23T07:31:39;11.40;99.90
17599;DHT22;8918;52.092;5.232;2023-03-23T07:34:04;11.50;99.90
17599;DHT22;8918;52.092;5.232;2023-03-23T07:36:31;11.50;99.90
17599;DHT22;8918;52.092;5.232;2023-03-23T07:38:57;11.50;99.90
17599;DHT22;8918;52.092;5.232;2023-03-23T07:41:23;11.60;99.90
17599;DHT22;8918;52.092;5.232;2023-03-23T07:43:49;11.60;99.90
17599;DHT22;8918;52.092;5.232;2023-03-23T07:46:14;11.60;99.90
17599;DHT22;8918;52.092;5.232;2023-03-23T07:48:40;11.60;99.90
17599;DHT22;8918;52.092;5.232;2023-03-23T07:51:06;11.60;99.90
17599;DHT22;8918;52.092;5.232;2023-03-23T07:53:32;11.70;99.90
17599;DHT22;8918;52.092;5.232;2023-03-23T07:55:58;11.70;99.90
17599;DHT22;8918;52.092;5.232;2023-03-23T07:58:24;11.70;99.90
17599;DHT22;8918;52.092;5.232;2023-03-23T08:00:52;11.70;99.90
17599;DHT22;8918;52.092;5.232;2023-03-23T08:03:18;11.80;99.90
17599;DHT22;8918;52.092;5.232;2023-03-23T08:05:43;11.80;99.90
17599;DHT22;8918;52.092;5.232;2023-03-23T08:08:10;11.90;99.90
17599;DHT22;8918;52.092;5.232;2023-03-23T08:10:36;11.90;99.90
17599;DHT22;8918;52.092;5.232;2023-03-23T08:13:02;11.90;99.90
17599;DHT22;8918;52.092;5.232;2023-03-23T08:15:28;11.80;99.90
17599;DHT22;8918;52.092;5.232;2023-03-23T08:17:54;11.80;99.90
17599;DHT22;8918;52.092;5.232;2023-03-23T08:20:20;11.90;99.90
17599;DHT22;8918;52.092;5.232;2023-03-23T08:22:52;12.00;99.90
17599;DHT22;8918;52.092;5.232;2023-03-23T08:25:19;12.10;99.90
17599;DHT22;8918;52.092;5.232;2023-03-23T08:27:45;12.30;99.90
17599;DHT22;8918;52.092;5.232;2023-03-23T08:30:13;12.40;99.90
17599;DHT22;8918;52.092;5.232;2023-03-23T08:32:39;12.50;99.90
17599;DHT22;8918;52.092;5.232;2023-03-23T08:35:07;12.60;99.90
17599;DHT22;8918;52.092;5.232;2023-03-23T08:37:34;12.60;99.90
17599;DHT22;8918;52.092;5.232;2023-03-23T08:40:00;12.60;99.90
17599;DHT22;8918;52.092;5.232;2023-03-23T08:42:32;12.50;99.90
17599;DHT22;8918;52.092;5.232;2023-03-23T08:44:58;12.40;99.90
17599;DHT22;8918;52.092;5.232;2023-03-23T08:47:23;12.40;99.90
17599;DHT22;8918;52.092;5.232;2023-03-23T08:49:49;12.40;99.90
17599;DHT22;8918;52.092;5.232;2023-03-23T08:52:18;12.40;99.90
17599;DHT22;8918;52.092;5.232;2023-03-23T08:54:45;12.50;99.90
17599;DHT22;8918;52.092;5.232;2023-03-23T08:57:13;12.50;99.90
17599;DHT22;8918;52.092;5.232;2023-03-23T08:59:40;12.60;99.90
17599;DHT22;8918;52.092;5.232;2023-03-23T09:02:09;12.70;99.90
17599;DHT22;8918;52.092;5.232;2023-03-23T09:04:35;12.80;99.90
17599;DHT22;8918;52.092;5.232;2023-03-23T09:07:02;12.90;99.90
17599;DHT22;8918;52.092;5.232;2023-03-23T09:09:28;12.90;99.90
17599;DHT22;8918;52.092;5.232;2023-03-23T09:11:53;13.00;99.90
17599;DHT22;8918;52.092;5.232;2023-03-23T09:14:19;13.20;99.90
17599;DHT22;8918;52.092;5.232;2023-03-23T09:16:45;13.20;99.90
17599;DHT22;8918;52.092;5.232;2023-03-23T09:19:11;13.30;99.90
17599;DHT22;8918;52.092;5.232;2023-03-23T09:21:38;13.30;99.90
17599;DHT22;8918;52.092;5.232;2023-03-23T09:24:04;13.20;99.90
17599;DHT22;8918;52.092;5.232;2023-03-23T09:26:31;13.20;99.90
17599;DHT22;8918;52.092;5.232;2023-03-23T09:28:57;13.00;99.90
17599;DHT22;8918;52.092;5.232;2023-03-23T09:31:23;12.90;99.90
17599;DHT22;8918;52.092;5.232;2023-03-23T09:33:53;13.10;99.90
17599;DHT22;8918;52.092;5.232;2023-03-23T09:36:21;13.30;99.90
17599;DHT22;8918;52.092;5.232;2023-03-23T09:38:47;13.60;99.90
17599;DHT22;8918;52.092;5.232;2023-03-23T09:44:49;13.60;99.90
17599;DHT22;8918;52.092;5.232;2023-03-23T09:48:16;13.60;99.90
17599;DHT22;8918;52.092;5.232;2023-03-23T09:50:26;13.50;99.90
17599;DHT22;8918;52.092;5.232;2023-03-23T09:53:04;13.50;99.90
17599;DHT22;8918;52.092;5.232;2023-03-23T09:55:34;13.40;99.90
17599;DHT22;8918;52.092;5.232;2023-03-23T09:58:24;13.70;99.90
17599;DHT22;8918;52.092;5.232;2023-03-23T10:01:01;13.80;99.90
17599;DHT22;8918;52.092;5.232;2023-03-23T10:03:34;13.90;99.90
17599;DHT22;8918;52.092;5.232;2023-03-23T10:06:03;13.90;99.90
17599;DHT22;8918;52.092;5.232;2023-03-23T10:08:32;14.10;99.90
17599;DHT22;8918;52.092;5.232;2023-03-23T10:11:20;13.90;99.90
17599;DHT22;8918;52.092;5.232;2023-03-23T10:20:09;14.20;99.90
17599;DHT22;8918;52.092;5.232;2023-03-23T10:22:42;14.10;99.90
17599;DHT22;8918;52.092;5.232;2023-03-23T10:27:56;14.10;99.90
17599;DHT22;8918;52.092;5.232;2023-03-23T10:30:36;14.10;99.90
17599;DHT22;8918;52.092;5.232;2023-03-23T10:38:19;14.40;99.90
17599;DHT22;8918;52.092;5.232;2023-03-23T10:40:52;14.50;99.90
17599;DHT22;8918;52.092;5.232;2023-03-23T10:43:19;14.60;99.90
17599;DHT22;8918;52.092;5.232;2023-03-23T10:45:52;14.60;99.90
17599;DHT22;8918;52.092;5.232;2023-03-23T10:48:29;14.60;99.90
17599;DHT22;8918;52.092;5.232;2023-03-23T10:51:00;14.90;99.90
17599;DHT22;8918;52.092;5.232;2023-03-23T10:53:37;15.10;99.90
17599;DHT22;8918;52.092;5.232;2023-03-23T10:56:04;15.30;99.90
17599;DHT22;8918;52.092;5.232;2023-03-23T10:58:33;15.60;99.90
17599;DHT22;8918;52.092;5.232;2023-03-23T11:01:00;15.90;99.90
17599;DHT22;8918;52.092;5.232;2023-03-23T11:03:39;15.80;99.90
17599;DHT22;8918;52.092;5.232;2023-03-23T11:06:08;16.40;99.90
17599;DHT22;8918;52.092;5.232;2023-03-23T11:08:46;17.00;99.90
17599;DHT22;8918;52.092;5.232;2023-03-23T11:11:20;16.90;99.90
17599;DHT22;8918;52.092;5.232;2023-03-23T11:13:52;16.00;99.90
17599;DHT22;8918;52.092;5.232;2023-03-23T11:16:32;15.30;99.90
17599;DHT22;8918;52.092;5.232;2023-03-23T11:19:00;14.80;99.90
17599;DHT22;8918;52.092;5.232;2023-03-23T11:21:27;14.50;99.90
17599;DHT22;8918;52.092;5.232;2023-03-23T11:23:56;14.40;99.90
17599;DHT22;8918;52.092;5.232;2023-03-23T11:26:29;15.50;99.90
17599;DHT22;8918;52.092;5.232;2023-03-23T11:28:57;17.50;99.90
17599;DHT22;8918;52.092;5.232;2023-03-23T11:31:27;19.00;99.90
17599;DHT22;8918;52.092;5.232;2023-03-23T11:34:05;19.80;99.90
17599;DHT22;8918;52.092;5.232;2023-03-23T11:36:37;20.50;99.90
17599;DHT22;8918;52.092;5.232;2023-03-23T11:39:26;20.40;99.90
17599;DHT22;8918;52.092;5.232;2023-03-23T11:41:53;19.00;99.90
17599;DHT22;8918;52.092;5.232;2023-03-23T11:44:22;17.90;99.90
17599;DHT22;8918;52.092;5.232;2023-03-23T11:47:01;16.90;99.90
17599;DHT22;8918;52.092;5.232;2023-03-23T11:55:00;15.20;99.90
17599;DHT22;8918;52.092;5.232;2023-03-23T11:57:28;15.30;99.90
17599;DHT22;8918;52.092;5.232;2023-03-23T11:59:56;15.20;99.90
17599;DHT22;8918;52.092;5.232;2023-03-23T12:05:40;15.80;99.90
17599;DHT22;8918;52.092;5.232;2023-03-23T12:10:54;17.20;99.90
17599;DHT22;8918;52.092;5.232;2023-03-23T12:22:18;16.40;99.90
17599;DHT22;8918;52.092;5.232;2023-03-23T12:27:31;15.40;99.90
17599;DHT22;8918;52.092;5.232;2023-03-23T12:30:04;15.00;99.90
17599;DHT22;8918;52.092;5.232;2023-03-23T12:43:24;14.80;99.90
17599;DHT22;8918;52.092;5.232;2023-03-23T12:49:19;15.20;99.90
17599;DHT22;8918;52.092;5.232;2023-03-23T12:51:54;15.30;99.90
17599;DHT22;8918;52.092;5.232;2023-03-23T13:03:45;16.30;99.90
17599;DHT22;8918;52.092;5.232;2023-03-23T13:06:38;16.60;99.90
17599;DHT22;8918;52.092;5.232;2023-03-23T13:11:38;17.10;99.90
17599;DHT22;8918;52.092;5.232;2023-03-23T13:22:41;18.40;99.90
17599;DHT22;8918;52.092;5.232;2023-03-23T13:25:17;18.50;99.90
17599;DHT22;8918;52.092;5.232;2023-03-23T13:27:44;18.20;99.90
17599;DHT22;8918;52.092;5.232;2023-03-23T13:30:22;17.70;99.90
17599;DHT22;8918;52.092;5.232;2023-03-23T13:32:51;17.10;99.90
17599;DHT22;8918;52.092;5.232;2023-03-23T13:35:19;16.70;99.90
17599;DHT22;8918;52.092;5.232;2023-03-23T13:37:49;16.30;99.90
17599;DHT22;8918;52.092;5.232;2023-03-23T13:40:24;16.10;99.90
17599;DHT22;8918;52.092;5.232;2023-03-23T13:42:56;16.00;99.90
17599;DHT22;8918;52.092;5.232;2023-03-23T13:50:54;15.70;99.90
17599;DHT22;8918;52.092;5.232;2023-03-23T13:53:42;15.80;99.90
17599;DHT22;8918;52.092;5.232;2023-03-23T13:58:50;15.80;99.90
17599;DHT22;8918;52.092;5.232;2023-03-23T14:01:32;15.60;99.90
17599;DHT22;8918;52.092;5.232;2023-03-23T14:04:01;15.50;99.90
17599;DHT22;8918;52.092;5.232;2023-03-23T14:06:34;15.20;99.90
17599;DHT22;8918;52.092;5.232;2023-03-23T14:12:02;13.90;99.90
17599;DHT22;8918;52.092;5.232;2023-03-23T14:14:40;13.50;99.90
17599;DHT22;8918;52.092;5.232;2023-03-23T14:17:17;13.50;99.90
17599;DHT22;8918;52.092;5.232;2023-03-23T14:19:49;13.70;99.90
17599;DHT22;8918;52.092;5.232;2023-03-23T14:22:28;14.10;99.90
17599;DHT22;8918;52.092;5.232;2023-03-23T14:25:26;14.30;99.90
17599;DHT22;8918;52.092;5.232;2023-03-23T14:27:51;14.50;99.90
17599;DHT22;8918;52.092;5.232;2023-03-23T14:30:33;14.70;99.90
17599;DHT22;8918;52.092;5.232;2023-03-23T14:33:07;15.10;99.90
17599;DHT22;8918;52.092;5.232;2023-03-23T14:35:37;15.30;99.90
17599;DHT22;8918;52.092;5.232;2023-03-23T14:38:04;15.70;99.90
17599;DHT22;8918;52.092;5.232;2023-03-23T14:40:35;16.10;99.90
17599;DHT22;8918;52.092;5.232;2023-03-23T14:43:01;16.30;99.90
17599;DHT22;8918;52.092;5.232;2023-03-23T14:45:26;16.40;99.90
17599;DHT22;8918;52.092;5.232;2023-03-23T14:47:56;16.80;99.90
17599;DHT22;8918;52.092;5.232;2023-03-23T14:50:38;17.40;99.90
17599;DHT22;8918;52.092;5.232;2023-03-23T14:55:49;17.00;99.90
17599;DHT22;8918;52.092;5.232;2023-03-23T14:58:17;16.80;99.90
17599;DHT22;8918;52.092;5.232;2023-03-23T15:00:55;16.60;99.90
17599;DHT22;8918;52.092;5.232;2023-03-23T15:03:22;16.70;99.90
17599;DHT22;8918;52.092;5.232;2023-03-23T15:05:54;16.80;99.90
17599;DHT22;8918;52.092;5.232;2023-03-23T15:08:28;17.00;99.90
17599;DHT22;8918;52.092;5.232;2023-03-23T15:11:21;17.20;99.90
17599;DHT22;8918;52.092;5.232;2023-03-23T15:13:55;17.40;99.90
17599;DHT22;8918;52.092;5.232;2023-03-23T15:16:27;17.70;99.90
17599;DHT22;8918;52.092;5.232;2023-03-23T15:18:59;17.90;99.90
17599;DHT22;8918;52.092;5.232;2023-03-23T15:23:59;17.80;99.90
17599;DHT22;8918;52.092;5.232;2023-03-23T15:26:29;18.00;99.90
17599;DHT22;8918;52.092;5.232;2023-03-23T15:31:34;17.90;99.90
17599;DHT22;8918;52.092;5.232;2023-03-23T15:34:03;17.50;99.90
17599;DHT22;8918;52.092;5.232;2023-03-23T15:36:34;17.10;99.90
17599;DHT22;8918;52.092;5.232;2023-03-23T15:38:59;16.80;99.90
17599;DHT22;8918;52.092;5.232;2023-03-23T15:41:30;16.60;99.90
17599;DHT22;8918;52.092;5.232;2023-03-23T15:44:10;16.60;99.90
17599;DHT22;8918;52.092;5.232;2023-03-23T15:46:36;16.60;99.90
17599;DHT22;8918;52.092;5.232;2023-03-23T15:49:12;16.50;99.90
17599;DHT22;8918;52.092;5.232;2023-03-23T15:51:39;16.40;99.90
17599;DHT22;8918;52.092;5.232;2023-03-23T15:54:10;16.30;99.90
17599;DHT22;8918;52.092;5.232;2023-03-23T15:56:37;16.20;99.90
17599;DHT22;8918;52.092;5.232;2023-03-23T15:59:02;16.20;99.90
17599;DHT22;8918;52.092;5.232;2023-03-23T16:01:29;16.30;99.90
17599;DHT22;8918;52.092;5.232;2023-03-23T16:04:02;16.50;99.90
17599;DHT22;8918;52.092;5.232;2023-03-23T16:06:31;16.50;99.90
17599;DHT22;8918;52.092;5.232;2023-03-23T16:08:58;16.50;99.90
17599;DHT22;8918;52.092;5.232;2023-03-23T16:11:27;16.40;99.90
17599;DHT22;8918;52.092;5.232;2023-03-23T16:13:54;16.30;99.90
17599;DHT22;8918;52.092;5.232;2023-03-23T16:16:26;16.20;99.90
17599;DHT22;8918;52.092;5.232;2023-03-23T16:18:52;16.30;99.90
17599;DHT22;8918;52.092;5.232;2023-03-23T16:21:18;16.30;99.90
17599;DHT22;8918;52.092;5.232;2023-03-23T16:23:43;16.20;99.90
17599;DHT22;8918;52.092;5.232;2023-03-23T16:26:13;16.00;99.90
17599;DHT22;8918;52.092;5.232;2023-03-23T16:28:39;15.90;99.90
17599;DHT22;8918;52.092;5.232;2023-03-23T16:31:05;15.90;99.90
17599;DHT22;8918;52.092;5.232;2023-03-23T16:33:31;15.80;99.90
17599;DHT22;8918;52.092;5.232;2023-03-23T16:35:57;15.70;99.90
17599;DHT22;8918;52.092;5.232;2023-03-23T16:38:22;15.60;99.90
17599;DHT22;8918;52.092;5.232;2023-03-23T16:40:48;15.60;99.90
17599;DHT22;8918;52.092;5.232;2023-03-23T16:43:14;15.50;99.90
17599;DHT22;8918;52.092;5.232;2023-03-23T16:45:41;15.50;99.90
17599;DHT22;8918;52.092;5.232;2023-03-23T16:48:07;15.50;99.90
17599;DHT22;8918;52.092;5.232;2023-03-23T16:50:34;15.40;99.90
17599;DHT22;8918;52.092;5.232;2023-03-23T16:53:01;15.40;99.90
17599;DHT22;8918;52.092;5.232;2023-03-23T16:55:27;15.40;99.90
17599;DHT22;8918;52.092;5.232;2023-03-23T16:57:54;15.50;99.90
17599;DHT22;8918;52.092;5.232;2023-03-23T17:00:20;15.50;99.90
17599;DHT22;8918;52.092;5.232;2023-03-23T17:02:50;15.40;99.90
17599;DHT22;8918;52.092;5.232;2023-03-23T17:05:20;15.40;99.90
17599;DHT22;8918;52.092;5.232;2023-03-23T17:07:47;15.40;99.90
17599;DHT22;8918;52.092;5.232;2023-03-23T17:10:14;15.40;99.90
17599;DHT22;8918;52.092;5.232;2023-03-23T17:12:41;15.30;99.90
17599;DHT22;8918;52.092;5.232;2023-03-23T17:15:07;15.30;99.90
17599;DHT22;8918;52.092;5.232;2023-03-23T17:17:33;15.30;99.90
17599;DHT22;8918;52.092;5.232;2023-03-23T17:19:59;15.30;99.90
17599;DHT22;8918;52.092;5.232;2023-03-23T17:22:25;15.30;99.90
17599;DHT22;8918;52.092;5.232;2023-03-23T17:24:51;15.20;99.90
17599;DHT22;8918;52.092;5.232;2023-03-23T17:27:18;15.20;99.90
17599;DHT22;8918;52.092;5.232;2023-03-23T17:29:44;15.20;99.90
17599;DHT22;8918;52.092;5.232;2023-03-23T17:32:10;15.10;99.90
17599;DHT22;8918;52.092;5.232;2023-03-23T17:34:36;15.00;99.90
17599;DHT22;8918;52.092;5.232;2023-03-23T17:37:02;15.00;99.90
17599;DHT22;8918;52.092;5.232;2023-03-23T17:39:28;15.00;99.90
17599;DHT22;8918;52.092;5.232;2023-03-23T17:41:54;15.00;99.90
17599;DHT22;8918;52.092;5.232;2023-03-23T17:44:19;14.90;99.90
17599;DHT22;8918;52.092;5.232;2023-03-23T17:46:45;14.90;99.90
17599;DHT22;8918;52.092;5.232;2023-03-23T17:49:11;14.80;99.90
17599;DHT22;8918;52.092;5.232;2023-03-23T17:51:36;14.80;99.90
17599;DHT22;8918;52.092;5.232;2023-03-23T17:54:02;14.70;99.90